createdAt,value
2022-12-16T06:17:05.221Z,0.00
2022-12-16T06:27:05.246Z,0.00
2022-12-16T06:37:05.153Z,0.00
2022-12-16T06:47:05.267Z,0.00
2022-12-16T06:57:05.299Z,0.00
2022-12-16T07:07:05.259Z,0.00
2022-12-16T07:17:05.209Z,0.00
2022-12-16T07:27:05.206Z,0.00
2022-12-16T07:37:05.110Z,0.00
2022-12-16T07:47:05.226Z,0.00
2022-12-16T07:57:05.311Z,0.00
2022-12-16T08:07:05.325Z,0.00
2022-12-16T08:17:05.265Z,0.00
2022-12-16T08:27:05.432Z,0.13
2022-12-16T08:37:05.362Z,3.20
2022-12-16T08:47:05.430Z,2.71
2022-12-16T08:57:05.221Z,0.36
2022-12-16T09:07:05.352Z,0.06
2022-12-16T09:17:05.142Z,0.65
2022-12-16T09:27:05.072Z,2.02
2022-12-16T09:37:05.411Z,0.61
2022-12-16T09:47:08.531Z,0.00
2022-12-16T09:57:05.462Z,0.00
2022-12-16T10:07:05.373Z,0.00
2022-12-16T10:17:05.612Z,0.25
2022-12-16T10:27:05.672Z,0.04
2022-12-16T10:37:10.938Z,0.13
2022-12-16T10:47:05.682Z,4.61
2022-12-16T10:57:05.439Z,4.85
2022-12-16T11:07:05.409Z,4.37
2022-12-16T11:17:05.473Z,3.80
2022-12-16T11:27:05.642Z,5.68
2022-12-16T11:37:05.593Z,5.81
2022-12-16T11:47:05.538Z,7.26
2022-12-16T11:57:05.301Z,8.33
2022-12-16T12:07:05.600Z,7.41
2022-12-16T12:17:05.453Z,6.88
2022-12-16T12:27:05.607Z,6.57
2022-12-16T12:37:05.457Z,2.31
2022-12-16T12:47:05.506Z,4.49
2022-12-16T12:57:05.326Z,4.09
2022-12-16T13:07:05.437Z,3.32
2022-12-16T13:17:05.490Z,1.25
2022-12-16T13:27:05.572Z,5.52
2022-12-16T13:37:05.498Z,3.92
2022-12-16T13:47:05.519Z,3.43
2022-12-16T13:57:05.347Z,0.63
2022-12-16T14:07:05.396Z,1.37
2022-12-16T14:17:05.472Z,1.35
2022-12-16T14:27:05.494Z,1.38
2022-12-16T14:37:05.506Z,2.09
2022-12-16T14:47:05.606Z,1.65
2022-12-16T14:57:05.661Z,0.05
2022-12-16T15:07:05.511Z,1.16
2022-12-16T15:17:05.595Z,0.98
2022-12-16T15:27:05.653Z,0.18
2022-12-16T15:37:05.506Z,0.00
2022-12-16T15:47:05.430Z,0.00
2022-12-16T15:57:05.517Z,0.00
2022-12-16T16:07:05.584Z,0.00
2022-12-16T16:17:05.551Z,0.00
2022-12-16T16:27:05.522Z,0.49
2022-12-16T16:37:05.359Z,0.17
2022-12-16T16:47:05.609Z,0.00
2022-12-16T16:57:05.501Z,0.24
2022-12-16T17:07:05.334Z,0.86
2022-12-16T17:17:05.510Z,0.00
2022-12-16T17:27:05.566Z,0.00
2022-12-16T17:37:05.453Z,0.77
2022-12-16T17:47:05.824Z,0.33
2022-12-16T17:57:05.910Z,1.78
2022-12-16T18:07:05.550Z,2.51
2022-12-16T18:17:05.629Z,1.84
2022-12-16T18:27:05.655Z,0.96
2022-12-16T18:37:05.753Z,2.93
2022-12-16T18:47:05.718Z,3.11
2022-12-16T18:57:06.057Z,6.96
2022-12-16T19:07:05.944Z,8.70
2022-12-16T19:17:06.226Z,5.90
